Time;durP1;ratioP1;P1;durP2;ratioP2;P2;SDS_P1;SDS_P2;PMS_P1;PMS_P2;Temp;Humidity;BMP_temperature;BMP_pressure;BME280_temperature;BME280_humidity;BME280_pressure;Samples;Min_cycle;Max_cycle;Signal;HPM_P1;HPM_P2
2022/01/24 00:02:24;;;;;;;48.83;30.57;;;4.00;79.40;;;;;;5013583;28;20029;-79
2022/01/24 00:04:50;;;;;;;49.07;28.40;;;4.00;78.80;;;;;;5016894;28;20018;-79
2022/01/24 00:07:19;;;;;;;47.00;30.80;;;3.90;78.80;;;;;;5016738;28;20537;-80
2022/01/24 00:09:46;;;;;;;47.77;28.60;;;3.90;78.60;;;;;;5016560;28;20038;-79
2022/01/24 00:12:18;;;;;;;46.90;28.27;;;3.90;78.50;;;;;;5015522;28;20555;-78
2022/01/24 00:28:10;;;;;;;41.80;22.67;;;3.80;79.50;;;;;;5016198;28;20041;-79
2022/01/24 00:30:36;;;;;;;39.23;25.60;;;3.80;79.50;;;;;;5016387;28;20063;-79
2022/01/24 00:33:02;;;;;;;42.67;25.03;;;3.90;79.50;;;;;;5016713;28;20096;-78
2022/01/24 00:35:28;;;;;;;41.10;25.43;;;3.90;79.60;;;;;;5016693;28;20026;-79
2022/01/24 00:37:59;;;;;;;41.23;24.83;;;3.90;79.60;;;;;;5016304;28;20508;-80
2022/01/24 00:40:26;;;;;;;44.90;26.77;;;3.90;79.50;;;;;;5014972;28;20393;-78
2022/01/24 00:42:56;;;;;;;43.53;25.67;;;3.90;79.30;;;;;;5015991;28;20057;-80
2022/01/24 00:45:35;;;;;;;46.80;27.40;;;3.90;79.40;;;;;;5016295;28;20025;-80
2022/01/24 00:55:54;;;;;;;43.23;27.23;;;3.90;79.90;;;;;;5016463;28;20034;-79
2022/01/24 00:58:20;;;;;;;44.03;26.27;;;3.90;79.80;;;;;;5015745;28;20029;-80
2022/01/24 01:00:46;;;;;;;43.77;26.53;;;4.00;79.60;;;;;;5016127;28;20057;-80
2022/01/24 01:03:11;;;;;;;45.40;26.17;;;3.90;79.60;;;;;;5016099;28;20045;-80
2022/01/24 01:18:54;;;;;;;46.27;28.80;;;3.90;78.40;;;;;;5015376;28;20064;-79
2022/01/24 01:21:20;;;;;;;46.30;28.80;;;3.90;78.20;;;;;;5014087;28;20490;-79
2022/01/24 01:23:55;;;;;;;45.63;27.73;;;3.90;78.20;;;;;;5015584;28;20032;-79
2022/01/24 01:28:53;;;;;;;46.63;27.43;;;;;;;;;;5015139;28;20057;-79
2022/01/24 01:31:29;;;;;;;46.43;27.43;;;;;;;;;;5015180;28;20033;-80
2022/01/24 01:55:39;;;;;;;41.90;25.13;;;;;;;;;;5015035;28;20041;-78
2022/01/24 01:58:06;;;;;;;46.70;25.90;;;;;;;;;;5013425;28;20025;-79
2022/01/24 02:00:33;;;;;;;41.77;25.33;;;;;;;;;;5010475;28;20056;-79
2022/01/24 02:02:59;;;;;;;43.77;26.37;;;;;;;;;;5012236;28;20034;-81
2022/01/24 02:05:25;;;;;;;44.90;25.20;;;;;;;;;;5013520;28;20033;-80
2022/01/24 02:07:52;;;;;;;44.93;26.47;;;;;;;;;;5013276;28;20449;-79
2022/01/24 02:10:19;;;;;;;44.83;25.83;;;;;;;;;;5014384;28;20536;-80
2022/01/24 02:12:46;;;;;;;50.23;27.10;;;;;;;;;;5014178;28;20402;-81
2022/01/24 02:15:17;;;;;;;37.77;24.27;;;;;;;;;;5014343;28;20029;-78
2022/01/24 02:18:09;;;;;;;40.03;24.90;;;;;;;;;;5014477;28;20046;-77
2022/01/24 02:23:20;;;;;;;36.95;23.48;;;;;;;;;;5014691;28;20038;-78
2022/01/24 02:25:46;;;;;;;41.07;23.80;;;;;;;;;;5013914;28;20053;-78
2022/01/24 02:28:13;;;;;;;36.27;24.20;;;;;;;;;;5013540;28;20091;-78
2022/01/24 02:33:06;;;;;;;35.83;22.40;;;;;;;;;;5014318;28;20157;-78
2022/01/24 02:35:32;;;;;;;34.23;21.13;;;;;;;;;;5013988;28;20066;-78
2022/01/24 02:38:02;;;;;;;32.13;21.17;;;;;;;;;;5014082;28;20105;-78
2022/01/24 02:40:28;;;;;;;34.87;19.93;;;;;;;;;;5012800;28;20881;-78
2022/01/24 02:48:27;;;;;;;32.73;19.30;;;;;;;;;;5013676;28;20084;-78
2022/01/24 02:53:25;;;;;;;38.73;20.23;;;;;;;;;;5014140;28;20026;-79
2022/01/24 02:55:51;;;;;;;30.57;20.00;;;;;;;;;;5014047;28;20052;-78
2022/01/24 02:58:19;;;;;;;33.00;20.00;;;;;;;;;;5013439;28;20026;-78
2022/01/24 03:00:46;;;;;;;33.37;19.50;;;;;;;;;;5013574;28;20091;-77
2022/01/24 03:03:12;;;;;;;33.23;21.13;;;;;;;;;;5013781;28;20033;-80
2022/01/24 03:05:38;;;;;;;30.97;19.40;;;;;;;;;;5013705;28;20026;-79
2022/01/24 03:08:06;;;;;;;33.43;19.60;;;;;;;;;;5012586;28;20395;-78
2022/01/24 03:10:39;;;;;;;29.47;18.77;;;;;;;;;;5014054;28;20064;-78
2022/01/24 03:15:41;;;;;;;32.73;19.07;;;;;;;;;;5013764;28;20034;-78
2022/01/24 03:18:07;;;;;;;32.63;19.43;;;;;;;;;;5013652;28;20033;-79
2022/01/24 03:20:34;;;;;;;33.57;20.43;;;;;;;;;;5013610;28;20033;-78
2022/01/24 03:23:00;;;;;;;31.73;19.97;;;;;;;;;;5013670;28;20025;-78
2022/01/24 03:25:27;;;;;;;33.43;20.47;;;;;;;;;;5013564;28;20497;-78
2022/01/24 03:27:53;;;;;;;35.20;20.17;;;;;;;;;;5013296;28;20057;-77
2022/01/24 03:30:19;;;;;;;35.70;20.27;;;;;;;;;;5013516;28;20414;-78
2022/01/24 03:32:45;;;;;;;33.60;20.37;;;;;;;;;;5013530;28;20025;-78
2022/01/24 03:35:12;;;;;;;35.30;20.83;;;;;;;;;;5013217;28;20030;-78
2022/01/24 03:37:38;;;;;;;38.47;20.73;;;;;;;;;;5014150;28;20026;-78
2022/01/24 03:40:05;;;;;;;36.00;20.00;;;;;;;;;;5017355;28;20034;-78
2022/01/24 03:42:31;;;;;;;37.03;20.50;;;;;;;;;;5017650;28;20038;-78
2022/01/24 03:45:03;;;;;;;33.87;21.37;;;;;;;;;;5017574;28;20029;-79
2022/01/24 03:50:11;;;;;;;32.38;20.45;;;;;;;;;;5017502;28;20030;-77
2022/01/24 03:52:37;;;;;;;34.23;20.30;;;;;;;;;;5017380;28;20076;-78
2022/01/24 03:55:04;;;;;;;36.27;21.23;;;;;;;;;;5017106;28;20030;-79
2022/01/24 03:57:30;;;;;;;32.23;19.97;;;;;;;;;;5017392;28;20119;-78
2022/01/24 03:59:56;;;;;;;38.33;19.97;;;;;;;;;;5016885;28;20026;-78
2022/01/24 04:02:24;;;;;;;34.43;20.90;;;;;;;;;;5017054;28;20041;-78
2022/01/24 04:04:50;;;;;;;39.27;19.80;;;;;;;;;;5016933;28;20080;-78
2022/01/24 04:07:17;;;;;;;31.27;19.87;;;;;;;;;;5016723;28;20049;-80
2022/01/24 04:09:43;;;;;;;31.30;19.27;;;;;;;;;;5016834;28;20045;-78
2022/01/24 04:12:10;;;;;;;30.03;19.07;;;;;;;;;;5016863;28;20445;-78
2022/01/24 04:22:12;;;;;;;31.73;19.27;;;;;;;;;;5016581;28;20506;-78
2022/01/24 04:24:39;;;;;;;35.47;18.93;;;;;;;;;;5016495;28;20062;-78
2022/01/24 04:27:06;;;;;;;30.37;18.77;;;;;;;;;;5016823;28;20141;-79
2022/01/24 04:29:32;;;;;;;26.87;17.17;;;;;;;;;;5016541;28;20041;-78
2022/01/24 04:31:58;;;;;;;29.23;18.03;;;;;;;;;;5016724;28;20053;-78
2022/01/24 04:34:24;;;;;;;28.40;17.00;;;;;;;;;;5015307;28;20026;-78
2022/01/24 04:36:51;;;;;;;28.13;16.80;;;;;;;;;;5016278;28;20507;-78
2022/01/24 04:39:19;;;;;;;25.40;15.73;;;;;;;;;;5015045;28;20029;-78
2022/01/24 04:41:48;;;;;;;25.50;16.67;;;;;;;;;;5016376;28;20044;-78
2022/01/24 04:54:42;;;;;;;28.77;16.43;;;;;;;;;;5016002;28;20037;-79
2022/01/24 04:57:13;;;;;;;24.73;13.97;;;;;;;;;;5015979;28;20108;-79
2022/01/24 04:59:40;;;;;;;19.17;13.00;;;;;;;;;;5015961;28;20077;-78
2022/01/24 05:02:06;;;;;;;25.70;14.90;;;;;;;;;;5015949;28;20470;-78
2022/01/24 05:04:33;;;;;;;20.07;12.13;;;;;;;;;;5015661;28;20099;-78
2022/01/24 05:06:59;;;;;;;19.57;11.93;;;;;;;;;;5015846;28;20026;-79
2022/01/24 05:09:27;;;;;;;20.57;11.50;;;;;;;;;;5015671;28;20041;-78
2022/01/24 05:12:03;;;;;;;21.80;12.47;;;;;;;;;;5016073;28;20533;-79
2022/01/24 05:25:26;;;;;;;21.93;13.20;;;;;;;;;;5016048;28;20037;-78
2022/01/24 05:27:52;;;;;;;21.00;13.33;;;;;;;;;;5015602;28;20083;-79
2022/01/24 05:30:18;;;;;;;21.07;12.67;;;;;;;;;;5015277;28;20022;-79
2022/01/24 05:32:44;;;;;;;22.90;12.93;;;;;;;;;;5015211;28;20021;-79
2022/01/24 05:35:11;;;;;;;21.67;12.37;;;;;;;;;;5015308;28;20501;-79
2022/01/24 05:37:37;;;;;;;20.03;11.47;;;;;;;;;;5015234;28;20034;-79
2022/01/24 05:40:03;;;;;;;21.33;12.57;;;;;;;;;;5015228;28;20026;-80
2022/01/24 05:42:29;;;;;;;25.13;12.10;;;;;;;;;;5015100;28;20070;-78
2022/01/24 05:44:58;;;;;;;20.67;11.27;;;;;;;;;;5015170;28;20044;-78
2022/01/24 05:47:24;;;;;;;18.53;10.93;;;;;;;;;;5015090;28;20026;-80
2022/01/24 05:49:50;;;;;;;20.40;11.27;;;;;;;;;;5014793;28;20433;-78
2022/01/24 05:52:16;;;;;;;19.23;10.80;;;;;;;;;;5014575;28;20469;-80
2022/01/24 05:54:43;;;;;;;16.70;9.53;;;;;;;;;;5015099;28;20521;-81
2022/01/24 05:57:09;;;;;;;18.23;10.50;;;;;;;;;;5014596;28;20040;-82
2022/01/24 05:59:35;;;;;;;15.00;9.77;;;;;;;;;;5014879;28;20030;-81
2022/01/24 06:02:01;;;;;;;15.90;8.97;;;;;;;;;;5014767;28;20509;-81
2022/01/24 06:04:27;;;;;;;13.70;8.33;;;;;;;;;;5014592;28;20045;-79
2022/01/24 06:06:53;;;;;;;13.17;7.93;;;;;;;;;;5014736;28;20109;-79
2022/01/24 06:09:19;;;;;;;12.03;7.37;;;;;;;;;;5014360;28;20477;-79
2022/01/24 06:11:45;;;;;;;14.60;6.90;;;;;;;;;;5014651;28;20025;-81
2022/01/24 06:14:11;;;;;;;12.03;6.43;;;;;;;;;;5014549;28;20060;-81
2022/01/24 06:16:38;;;;;;;8.60;5.67;;;;;;;;;;5014378;28;20026;-77
2022/01/24 06:19:04;;;;;;;9.30;5.47;;;;;;;;;;5014500;28;20033;-80
2022/01/24 06:21:30;;;;;;;7.97;5.53;;;;;;;;;;5014404;28;20124;-80
2022/01/24 06:23:57;;;;;;;11.87;5.20;;;;;;;;;;5014234;28;20022;-78
2022/01/24 06:26:23;;;;;;;11.23;5.90;;;;;;;;;;5014225;28;20026;-82
2022/01/24 06:28:49;;;;;;;8.87;5.27;;;;;;;;;;5014494;28;20033;-82
2022/01/24 06:31:15;;;;;;;11.20;5.27;;;;;;;;;;5014514;28;20026;-82
2022/01/24 06:33:41;;;;;;;8.23;5.30;;;;;;;;;;5014201;28;20041;-82
2022/01/24 06:36:07;;;;;;;11.40;5.90;;;;;;;;;;5014296;28;20467;-83
2022/01/24 06:38:33;;;;;;;9.33;5.70;;;;;;;;;;5014164;28;20026;-82
2022/01/24 06:40:59;;;;;;;9.20;5.13;;;;;;;;;;5014330;28;20022;-85
2022/01/24 06:43:25;;;;;;;11.13;5.53;;;;;;;;;;5013721;28;20084;-82
2022/01/24 06:45:51;;;;;;;8.90;5.67;;;;;;;;;;5013996;28;20013;-83
2022/01/24 06:48:17;;;;;;;10.57;5.20;;;;;;;;;;5013940;28;20026;-84
2022/01/24 06:50:44;;;;;;;12.20;5.53;;;;;;;;;;5014071;28;20026;-82
2022/01/24 06:53:10;;;;;;;10.57;5.83;;;;;;;;;;5013953;28;20026;-81
2022/01/24 06:55:36;;;;;;;9.37;5.73;;;;;;;;;;5012570;28;20482;-82
2022/01/24 06:58:02;;;;;;;9.87;5.40;;;;;;;;;;5013645;28;20450;-83
2022/01/24 07:00:30;;;;;;;12.67;5.80;;;;;;;;;;5013522;28;20025;-83
2022/01/24 07:02:57;;;;;;;9.57;5.67;;;;;;;;;;5014028;28;20034;-83
2022/01/24 07:05:27;;;;;;;8.57;5.30;;;;;;;;;;5013390;28;20030;-82
2022/01/24 07:07:56;;;;;;;12.67;7.47;;;;;;;;;;5013445;28;20037;-82
2022/01/24 07:10:22;;;;;;;19.17;9.73;;;;;;;;;;5012105;28;20050;-83
2022/01/24 07:12:49;;;;;;;18.83;12.37;;;;;;;;;;5012927;28;20577;-83
2022/01/24 07:15:17;;;;;;;18.07;11.50;;;;;;;;;;5013628;28;20044;-85
2022/01/24 07:18:11;;;;;;;26.70;16.20;;;;;;;;;;5013519;28;20114;-83
2022/01/24 07:20:35;;;;;;;36.83;18.17;;;;;;;;;;5013674;28;20064;-83
2022/01/24 07:23:02;;;;;;;32.10;19.07;;;;;;;;;;5014090;28;20026;-82
2022/01/24 07:25:28;;;;;;;37.33;20.93;;;;;;;;;;5013561;28;20026;-84
2022/01/24 07:27:54;;;;;;;43.90;19.73;;;;;;;;;;5012507;28;20025;-85
2022/01/24 07:30:20;;;;;;;34.23;17.93;;;;;;;;;;5013901;28;20022;-77
2022/01/24 07:32:46;;;;;;;30.50;16.87;;;;;;;;;;5011258;28;20791;-83
2022/01/24 07:35:12;;;;;;;32.30;17.87;;;;;;;;;;5010493;28;20061;-76
2022/01/24 07:37:39;;;;;;;35.20;17.03;;;;;;;;;;5011812;28;20030;-75
2022/01/24 07:40:07;;;;;;;25.60;11.87;;;;;;;;;;5013554;28;20084;-75
2022/01/24 07:45:19;;;;;;;10.93;7.60;;;;;;;;;;5013217;28;20110;-76
2022/01/24 07:47:47;;;;;;;14.97;8.87;;;;;;;;;;5012186;28;20033;-80
2022/01/24 07:50:14;;;;;;;34.10;16.17;;;;;;;;;;5013044;28;20018;-77
2022/01/24 07:52:40;;;;;;;38.03;22.37;;;;;;;;;;5012808;28;20053;-79
2022/01/24 07:55:06;;;;;;;41.13;22.03;;;;;;;;;;5012746;28;20025;-80
2022/01/24 07:57:32;;;;;;;31.27;18.67;;;;;;;;;;5012876;28;20038;-80
2022/01/24 07:59:59;;;;;;;31.67;17.83;;;;;;;;;;5011719;28;20025;-80
2022/01/24 08:02:25;;;;;;;31.90;18.87;;;;;;;;;;5012577;28;20041;-80
2022/01/24 08:04:51;;;;;;;28.40;18.93;;;;;;;;;;5011509;28;20026;-80
2022/01/24 08:07:17;;;;;;;35.13;19.67;;;;;;;;;;5012928;28;20393;-80
2022/01/24 08:09:43;;;;;;;27.23;18.00;;;;;;;;;;5012530;28;20038;-80
2022/01/24 08:12:09;;;;;;;39.27;18.20;;;;;;;;;;5013192;28;20417;-81
2022/01/24 08:14:35;;;;;;;31.37;16.57;;;;;;;;;;5013075;28;20501;-81
2022/01/24 08:17:02;;;;;;;24.13;15.40;;;;;;;;;;5012206;28;20026;-78
2022/01/24 08:19:29;;;;;;;28.60;16.20;;;;;;;;;;5008250;28;20053;-78
2022/01/24 08:21:56;;;;;;;23.47;15.47;;;;;;;;;;5009543;28;20042;-78
2022/01/24 08:24:23;;;;;;;25.60;15.67;;;;;;;;;;5014199;28;20425;-78
2022/01/24 08:26:49;;;;;;;18.80;13.40;;;;;;;;;;5016206;28;20076;-78
2022/01/24 08:29:15;;;;;;;23.20;13.47;;;;;;;;;;5015866;28;20026;-78
2022/01/24 08:31:41;;;;;;;18.60;12.30;;;;;;;;;;5015996;28;20053;-79
2022/01/24 08:34:07;;;;;;;20.50;13.30;;;;;;;;;;5016115;28;20025;-79
2022/01/24 08:36:34;;;;;;;29.97;14.90;;;;;;;;;;5016041;28;20109;-78
2022/01/24 08:39:06;;;;;;;20.60;14.07;;;;;;;;;;5016466;28;20064;-80
2022/01/24 08:41:43;;;;;;;22.42;14.13;;;;;;;;;;5016060;28;20022;-78
2022/01/24 08:46:48;;;;;;;21.47;13.80;;;;;;;;;;5015871;28;20046;-79
2022/01/24 08:49:14;;;;;;;23.53;13.97;;;;;;;;;;5014446;28;20112;-79
2022/01/24 08:51:40;;;;;;;25.27;14.53;;;;;;;;;;5015749;28;20018;-79
2022/01/24 08:54:07;;;;;;;30.70;15.97;;;;;;;;;;5015765;28;20037;-78
2022/01/24 08:56:34;;;;;;;22.00;13.93;;;;;;;;;;5015428;28;20588;-79
2022/01/24 08:59:00;;;;;;;26.43;14.20;;;;;;;;;;5015220;28;20112;-76
2022/01/24 09:01:26;;;;;;;24.77;14.47;;;;;;;;;;5015687;28;20040;-76
2022/01/24 09:03:52;;;;;;;21.90;14.30;;;;;;;;;;5015723;28;20037;-75
2022/01/24 09:06:20;;;;;;;22.43;14.97;;;;;;;;;;5014881;28;20497;-78
2022/01/24 09:08:55;;;;;;;25.03;13.93;;;;;;;;;;5015051;28;20056;-76
2022/01/24 09:11:21;;;;;;;23.70;14.93;;;;;;;;;;5013978;28;20022;-78
2022/01/24 09:13:47;;;;;;;23.60;15.07;;;;;;;;;;5013836;28;20455;-75
2022/01/24 09:16:13;;;;;;;23.90;14.40;;;;;;;;;;5014697;28;20026;-77
2022/01/24 09:18:39;;;;;;;27.90;13.50;;;;;;;;;;5014047;28;20145;-78
2022/01/24 09:21:05;;;;;;;21.90;11.60;;;;;;;;;;5014860;28;20026;-84
2022/01/24 09:23:31;;;;;;;17.47;11.47;;;;;;;;;;5014992;28;20026;-77
2022/01/24 09:25:59;;;;;;;20.80;12.23;;;;;;;;;;5013339;28;20053;-82
2022/01/24 09:28:25;;;;;;;21.53;13.50;;;;;;;;;;5011849;28;20026;-84
2022/01/24 09:30:52;;;;;;;28.03;13.43;;;;;;;;;;5010822;28;20060;-81
2022/01/24 09:33:18;;;;;;;22.07;13.10;;;;;;;;;;5012390;28;20080;-83
2022/01/24 09:35:45;;;;;;;20.37;12.50;;;;;;;;;;5013735;28;20097;-81
2022/01/24 09:38:12;;;;;;;21.03;12.63;;;;;;;;;;5013690;28;20053;-81
2022/01/24 09:40:38;;;;;;;22.07;12.23;;;;;;;;;;5012456;28;20104;-82
2022/01/24 09:43:05;;;;;;;25.43;12.27;;;;;;;;;;5012775;28;20030;-84
2022/01/24 09:45:31;;;;;;;24.43;12.47;;;;;;;;;;5013375;28;20061;-76
2022/01/24 09:47:57;;;;;;;25.53;12.10;;;;;;;;;;5014812;28;20066;-81
2022/01/24 09:50:23;;;;;;;21.90;14.20;;;;;;;;;;5014563;28;20075;-80
2022/01/24 09:52:50;;;;;;;33.50;14.60;;;;;;;;;;5014078;28;20022;-80
2022/01/24 09:55:17;;;;;;;23.17;14.47;;;;;;;;;;5014646;28;20064;-81
2022/01/24 09:57:47;;;;;;;26.07;14.73;;;3.00;80.20;;;;;;5014285;28;20022;-80
2022/01/24 10:00:15;;;;;;;30.53;13.57;;;5.00;78.00;;;;;;5014583;28;20025;-81
2022/01/24 10:02:43;;;;;;;26.63;14.67;;;5.00;77.80;;;;;;5014531;28;20034;-81
2022/01/24 10:05:15;;;;;;;24.97;13.40;;;5.00;77.90;;;;;;5014270;28;20473;-81
2022/01/24 10:07:41;;;;;;;24.13;12.98;;;5.10;78.00;;;;;;5014580;28;20033;-84
2022/01/24 10:10:07;;;;;;;19.20;12.50;;;5.20;77.90;;;;;;5014545;28;20053;-85
2022/01/24 10:17:53;;;;;;;17.87;11.60;;;5.40;77.70;;;;;;5014431;28;20037;-86
2022/01/24 10:20:26;;;;;;;14.83;10.90;;;5.50;77.30;;;;;;5013058;28;20018;-84
2022/01/24 10:23:10;;;;;;;;;;;5.50;77.30;;;;;;5014883;28;20040;-84
2022/01/24 10:26:04;;;;;;;19.42;10.90;;;5.60;76.70;;;;;;5014699;28;20365;-84
2022/01/24 10:28:41;;;;;;;21.93;12.73;;;5.70;76.70;;;;;;5014542;28;20525;-85
2022/01/24 10:31:09;;;;;;;22.93;11.63;;;5.80;76.50;;;;;;5014422;28;20105;-84
2022/01/24 10:34:35;;;;;;;18.07;10.83;;;5.80;76.30;;;;;;5014280;28;20466;-83
2022/01/24 10:36:54;;;;;;;17.77;11.43;;;;;;;;;;5014228;28;20033;-85
2022/01/24 10:39:33;;;;;;;14.83;9.77;;;;;;;;;;5014546;28;20105;-85
2022/01/24 10:45:02;;;;;;;15.53;10.23;;;;;;;;;;5013955;28;20022;-85
2022/01/24 10:47:32;;;;;;;13.77;9.20;;;5.90;76.00;;;;;;5013373;28;20034;-88
2022/01/24 10:50:01;;;;;;;15.93;9.90;;;6.40;73.00;;;;;;5013540;28;20033;-85
2022/01/24 10:52:30;;;;;;;15.73;10.43;;;6.50;72.70;;;;;;5013716;28;20037;-85
2022/01/24 10:55:15;;;;;;;17.43;9.67;;;6.60;72.10;;;;;;5012105;28;20052;-82
2022/01/24 10:57:44;;;;;;;15.90;9.50;;;6.70;71.60;;;;;;5013905;28;20486;-86
2022/01/24 11:00:20;;;;;;;14.53;9.13;;;6.80;70.70;;;;;;5012772;28;20028;-85
2022/01/24 11:02:49;;;;;;;13.50;9.13;;;6.80;70.00;;;;;;5013883;28;20405;-88
2022/01/24 11:05:20;;;;;;;14.23;9.63;;;;;;;;;;5045790;28;20021;-86
2022/01/24 11:07:47;;;;;;;15.13;9.53;;;;;;;;;;5013786;28;20033;-84
2022/01/24 11:10:14;;;;;;;18.40;10.13;;;;;;;;;;5013823;28;20045;-85
2022/01/24 11:12:40;;;;;;;19.40;10.50;;;;;;;;;;5013787;28;20030;-84
2022/01/24 11:15:06;;;;;;;13.07;8.67;;;;;;;;;;5013863;28;20434;-89
2022/01/24 11:17:34;;;;;;;14.37;10.07;;;;;;;;;;5013538;28;20470;-78
2022/01/24 11:20:02;;;;;;;15.00;9.87;;;;;;;;;;5013548;28;20030;-86
2022/01/24 11:22:31;;;;;;;14.87;10.07;;;;;;;;;;5011553;28;20041;-84
2022/01/24 11:25:02;;;;;;;14.47;10.13;;;;;;;;;;5011704;28;20026;-83
2022/01/24 11:27:28;;;;;;;13.40;9.00;;;;;;;;;;5013743;28;20036;-86
2022/01/24 11:29:56;;;;;;;13.40;9.03;;;;;;;;;;5013284;28;20088;-84
2022/01/24 11:32:30;;;;;;;12.77;8.90;;;;;;;;;;5012636;28;20030;-83
2022/01/24 11:34:57;;;;;;;14.57;9.20;;;;;;;;;;5013372;28;20144;-87
2022/01/24 11:37:35;;;;;;;14.03;9.47;;;;;;;;;;5015085;28;20128;-83
2022/01/24 11:40:07;;;;;;;12.70;8.77;;;;;;;;;;5045412;28;20477;-84
2022/01/24 11:42:35;;;;;;;16.17;9.13;;;;;;;;;;5013573;28;20038;-83
2022/01/24 11:45:10;;;;;;;12.23;8.07;;;;;;;;;;5012930;28;20026;-85
2022/01/24 11:47:36;;;;;;;13.37;9.40;;;;;;;;;;5013601;28;20397;-83
2022/01/24 11:50:24;;;;;;;12.90;8.43;;;;;;;;;;5013673;28;20022;-82
2022/01/24 11:52:50;;;;;;;14.40;9.13;;;;;;;;;;5006622;28;20042;-83
2022/01/24 11:55:27;;;;;;;16.10;9.57;;;;;;;;;;5013502;28;20030;-84
2022/01/24 11:57:58;;;;;;;19.13;9.50;;;;;;;;;;5013548;28;20037;-83
2022/01/24 12:00:30;;;;;;;12.83;8.70;;;;;;;;;;5017219;28;20076;-75
2022/01/24 12:02:58;;;;;;;13.10;8.95;;;;;;;;;;5016874;28;20470;-78
2022/01/24 12:05:24;;;;;;;14.27;8.83;;;;;;;;;;5017299;28;20101;-82
2022/01/24 12:07:52;;;;;;;14.57;8.70;;;;;;;;;;5016934;28;20050;-82
2022/01/24 12:10:24;;;;;;;12.43;8.57;;;;;;;;;;5016397;28;20081;-82
2022/01/24 12:12:59;;;;;;;15.20;9.00;;;;;;;;;;5016681;28;20080;-82
2022/01/24 12:15:38;;;;;;;15.17;8.63;;;;;;;;;;5016767;28;20033;-84
2022/01/24 12:18:05;;;;;;;13.93;9.20;;;;;;;;;;5016817;28;20106;-81
2022/01/24 12:20:31;;;;;;;15.00;9.53;;;;;;;;;;5016499;28;20030;-81
2022/01/24 12:23:21;;;;;;;13.13;9.00;;;;;;;;;;5016345;28;20112;-80
2022/01/24 12:25:57;;;;;;;13.43;8.53;;;;;;;;;;5016279;28;20054;-81
2022/01/24 12:28:24;;;;;;;14.63;9.07;;;;;;;;;;5015131;28;20045;-83
2022/01/24 12:31:10;;;;;;;15.57;9.87;;;;;;;;;;5013405;28;20061;-81
2022/01/24 12:33:36;;;;;;;14.07;8.97;;;;;;;;;;5012936;28;20030;-79
2022/01/24 12:36:04;;;;;;;18.23;10.10;;;;;;;;;;5012919;28;20033;-82
2022/01/24 12:38:46;;;;;;;14.47;9.53;;;;;;;;;;5015292;28;20065;-82
2022/01/24 12:41:35;;;;;;;14.73;9.50;;;;;;;;;;5015681;28;20026;-82
2022/01/24 12:46:32;;;;;;;11.97;8.50;;;6.90;69.80;;;;;;5015907;28;20077;-80
2022/01/24 12:49:02;;;;;;;15.23;8.57;;;;;;;;;;5015640;28;20434;-80
2022/01/24 12:51:29;;;;;;;14.27;8.60;;;;;;;;;;5015482;28;20367;-79
2022/01/24 12:53:57;;;;;;;12.57;8.37;;;;;;;;;;5047612;28;20456;-79
2022/01/24 12:56:27;;;;;;;12.47;8.20;;;;;;;;;;5015449;28;20088;-80
2022/01/24 12:58:53;;;;;;;14.23;8.50;;;;;;;;;;5015353;28;20049;-80
2022/01/24 13:01:26;;;;;;;12.47;8.20;;;;;;;;;;5015620;28;20038;-80
2022/01/24 13:25:08;;;;;;;13.17;8.60;;;6.40;66.80;;;;;;5086646;28;20036;-82
2022/01/24 13:27:42;;;;;;;12.90;8.30;;;6.40;66.90;;;;;;5086697;28;20027;-82
2022/01/24 13:30:19;;;;;;;17.03;8.73;;;6.40;66.80;;;;;;5090247;28;20024;-82
2022/01/24 13:32:50;;;;;;;11.20;8.43;;;6.40;66.60;;;;;;5089688;28;20045;-80
2022/01/24 13:35:27;;;;;;;11.60;7.57;;;6.40;66.90;;;;;;5089746;28;20032;-80
2022/01/24 13:38:04;;;;;;;13.93;8.17;;;6.50;66.70;;;;;;5089912;28;20028;-80
2022/01/24 13:40:33;;;;;;;11.47;7.53;;;6.50;66.90;;;;;;5089462;28;20495;-81
2022/01/24 13:42:59;;;;;;;13.90;8.00;;;6.50;66.60;;;;;;5089223;28;20506;-80
2022/01/24 13:45:25;;;;;;;10.83;7.70;;;6.50;66.50;;;;;;5089929;28;20028;-80
2022/01/24 13:47:59;;;;;;;12.70;8.23;;;6.50;66.50;;;;;;5089746;28;20016;-79
2022/01/24 13:50:25;;;;;;;10.07;7.43;;;6.60;66.00;;;;;;5089648;28;20032;-80
2022/01/24 13:52:51;;;;;;;14.67;8.43;;;6.60;66.00;;;;;;5089482;28;20021;-81
2022/01/24 13:55:19;;;;;;;11.40;7.90;;;6.60;66.10;;;;;;5089142;28;20020;-81
2022/01/24 13:57:47;;;;;;;13.03;7.60;;;6.70;65.30;;;;;;5089534;28;20028;-81
2022/01/24 14:00:25;;;;;;;10.53;6.83;;;6.70;65.10;;;;;;5089376;28;20380;-81
2022/01/24 14:03:05;;;;;;;11.90;7.83;;;6.70;64.70;;;;;;5089043;28;20028;-81
2022/01/24 14:05:31;;;;;;;12.33;7.53;;;6.70;64.70;;;;;;5089064;28;20021;-80
2022/01/24 14:08:12;;;;;;;9.53;7.20;;;6.60;64.80;;;;;;5089000;28;20028;-79
2022/01/24 14:10:38;;;;;;;10.77;6.87;;;6.60;64.70;;;;;;5089131;28;20031;-81
2022/01/24 14:13:04;;;;;;;12.07;7.03;;;6.60;65.00;;;;;;5089313;28;20710;-80
2022/01/24 14:20:47;;;;;;;8.47;6.20;;;6.50;64.60;;;;;;5089260;28;20107;-83
2022/01/24 14:23:38;;;;;;;8.83;6.63;;;6.50;64.60;;;;;;5089041;28;20513;-83
2022/01/24 14:26:19;;;;;;;9.50;6.63;;;6.50;64.60;;;;;;5087721;28;20024;-83
2022/01/24 14:28:46;;;;;;;10.67;6.63;;;6.50;64.10;;;;;;5075570;28;20101;-84
2022/01/24 14:31:14;;;;;;;8.33;5.87;;;6.50;64.40;;;;;;5075164;28;20032;-80
2022/01/24 14:33:44;;;;;;;8.97;6.07;;;6.50;63.90;;;;;;5075516;28;20035;-86
2022/01/24 14:36:16;;;;;;;21.23;12.03;;;6.50;64.20;;;;;;5075060;28;20036;-81
2022/01/24 14:38:45;;;;;;;39.67;22.53;;;6.50;64.30;;;;;;5075665;28;20055;-86
2022/01/24 14:41:29;;;;;;;20.83;13.23;;;6.50;64.10;;;;;;5074184;28;20021;-85
2022/01/24 14:46:44;;;;;;;12.17;7.60;;;6.40;63.40;;;;;;5076819;28;20106;-88
2022/01/24 14:49:12;;;;;;;18.57;11.77;;;6.50;63.40;;;;;;5074209;28;20508;-83
2022/01/24 14:51:44;;;;;;;15.30;9.03;;;6.50;63.60;;;;;;5074612;28;20396;-83
2022/01/24 14:54:15;;;;;;;9.07;6.45;;;6.50;63.70;;;;;;5074721;28;20473;-83
2022/01/24 14:56:45;;;;;;;9.33;5.00;;;6.40;63.50;;;;;;5074825;28;20037;-84
2022/01/24 14:59:11;;;;;;;8.40;5.93;;;6.40;62.90;;;;;;5074331;28;20127;-83
2022/01/24 15:01:37;;;;;;;8.00;5.33;;;6.40;62.90;;;;;;5074524;28;20037;-79
2022/01/24 15:04:04;;;;;;;8.87;4.37;;;6.40;62.30;;;;;;5074500;28;20021;-83
2022/01/24 15:06:30;;;;;;;7.60;4.40;;;6.40;62.90;;;;;;5074760;28;20047;-83
2022/01/24 15:08:59;;;;;;;7.57;4.50;;;6.40;63.00;;;;;;5073805;28;20031;-84
2022/01/24 15:11:31;;;;;;;6.17;4.20;;;6.40;62.60;;;;;;5054718;28;20024;-83
2022/01/24 15:14:03;;;;;;;5.97;4.00;;;6.30;62.50;;;;;;5055011;28;20021;-84
2022/01/24 15:16:43;;;;;;;9.93;4.73;;;6.30;62.70;;;;;;5065160;28;20500;-84
2022/01/24 15:27:09;;;;;;;5.47;3.80;;;6.20;63.10;;;;;;5074681;28;20123;-84
2022/01/24 15:29:35;;;;;;;4.90;3.70;;;6.10;63.40;;;;;;5071379;28;20036;-84
2022/01/24 15:32:04;;;;;;;5.80;3.97;;;6.10;64.30;;;;;;5071830;28;20021;-84
2022/01/24 15:34:35;;;;;;;7.67;4.57;;;6.10;63.50;;;;;;5072455;28;20028;-81
2022/01/24 15:37:03;;;;;;;6.07;4.13;;;6.00;63.50;;;;;;5073688;28;20044;-85
2022/01/24 15:39:29;;;;;;;8.23;4.07;;;6.00;63.80;;;;;;5073435;28;20021;-86
2022/01/24 15:41:59;;;;;;;10.27;4.40;;;6.00;64.20;;;;;;5072889;28;20499;-84
2022/01/24 15:47:30;;;;;;;6.63;4.63;;;6.00;63.80;;;;;;5073645;28;20036;-83
2022/01/24 15:49:51;;;;;;;6.03;4.00;;;5.90;63.70;;;;;;5073844;28;20070;-86
2022/01/24 15:52:16;;;;;;;7.27;4.13;;;5.90;64.30;;;;;;5074082;28;20021;-84
2022/01/24 15:54:45;;;;;;;6.37;4.40;;;5.90;63.90;;;;;;5073958;28;20021;-79
2022/01/24 15:59:54;;;;;;;7.20;4.13;;;5.90;63.60;;;;;;5073804;28;20450;-82
2022/01/24 16:02:20;;;;;;;6.33;3.77;;;5.90;63.40;;;;;;5073740;28;20032;-84
2022/01/24 16:04:46;;;;;;;6.50;4.30;;;5.90;63.20;;;;;;5073933;28;20155;-85
2022/01/24 16:07:12;;;;;;;6.27;4.40;;;5.90;63.40;;;;;;5073741;28;20146;-85
2022/01/24 16:09:38;;;;;;;6.33;4.23;;;5.80;63.50;;;;;;5073682;28;20108;-84
2022/01/24 16:12:04;;;;;;;7.10;4.67;;;5.80;63.80;;;;;;5073532;28;20027;-86
2022/01/24 16:14:30;;;;;;;8.50;5.50;;;5.80;63.80;;;;;;5073576;28;20025;-85
2022/01/24 16:16:56;;;;;;;6.90;4.73;;;5.80;63.60;;;;;;5073628;28;20142;-86
2022/01/24 16:19:23;;;;;;;7.30;4.70;;;5.70;63.60;;;;;;5073495;28;20031;-87
2022/01/24 16:22:15;;;;;;;7.77;5.03;;;5.70;63.70;;;;;;5073928;28;20020;-86
2022/01/24 16:27:15;;;;;;;9.00;5.10;;;5.70;64.00;;;;;;5073811;28;20423;-86
2022/01/24 16:29:41;;;;;;;7.57;4.57;;;5.70;63.80;;;;;;5073433;28;20027;-87
2022/01/24 16:32:07;;;;;;;7.20;4.37;;;5.60;63.60;;;;;;5074209;28;20021;-87
2022/01/24 16:34:33;;;;;;;6.23;4.33;;;5.60;63.60;;;;;;5074022;28;20013;-87
2022/01/24 16:37:06;;;;;;;6.90;4.50;;;5.60;63.90;;;;;;5073623;28;20028;-87
2022/01/24 16:39:35;;;;;;;6.80;4.20;;;5.50;64.00;;;;;;5074411;28;20417;-88
2022/01/24 16:42:11;;;;;;;8.23;4.13;;;5.50;63.80;;;;;;5073709;28;20086;-87
2022/01/24 16:44:53;;;;;;;6.83;4.23;;;5.40;63.90;;;;;;5073009;28;20013;-84
2022/01/24 16:47:24;;;;;;;7.73;4.40;;;5.40;64.30;;;;;;5055896;28;20028;-86